Weather reports worldwide

Advertisment
Nimes/Courbessac, France (7645): temperature & dewpoint: 20.09.2018 17:00:00 - 26.09.2018 17:00:00 (CEST)Nimes/Courbessac, France (7645): temperature 5cm: 20.09.2018 17:00:00 - 26.09.2018 17:00:00 (CEST)Nimes/Courbessac, France (7645): temperature -20cm: 20.09.2018 17:00:00 - 26.09.2018 17:00:00 (CEST)Nimes/Courbessac, France (7645): wind speed & gusts: 20.09.2018 17:00:00 - 26.09.2018 17:00:00 (CEST)Nimes/Courbessac, France (7645): wind direction: 20.09.2018 17:00:00 - 26.09.2018 17:00:00 (CEST)Nimes/Courbessac, France (7645): reduced air pressure: 20.09.2018 17:00:00 - 26.09.2018 17:00:00 (CEST)Nimes/Courbessac, France (7645): sunshine duration: 20.09.2018 17:00:00 - 26.09.2018 17:00:00 (CEST)Nimes/Courbessac, France (7645): precipitation: 20.09.2018 17:00:00 - 26.09.2018 17:00:00 (CEST)
Date & Time tt [°C] td [°C] tt 5cm [°C] tt -20cm [°C] ff [km/h] ff [kn] fx [km/h] fx [kn] dd ppp [hPa] sd [min] rr [mm]
26.09.2018 17:00:00 24,5 10,0 29,4 23,0 12 7 30 16 SW 1031,8 60 0,0
26.09.2018 16:00:00 25,8 8,3 33,8 22,7 7 4 20 11 SSW 1031,9 60 0,0
26.09.2018 15:00:00 25,1 7,7 33,7 22,5 8 4 21 11 SSW 1032,5 60 0,0
26.09.2018 14:00:00 24,5 8,0 32,9 22,4 7 4 19 10 SE 1033,1 60 0,0
26.09.2018 13:00:00 23,9 7,5 31,0 22,3 6 4 13 7 SSW 1033,8 60 0,0
26.09.2018 12:00:00 22,8 7,3 29,7 22,3 4 2 15 8 SSE 1034,0 60 0,0
26.09.2018 11:00:00 22,6 8,3 25,9 22,3 5 3 12 7 ESE 1033,9 60 0,0
26.09.2018 10:00:00 19,9 6,9 19,1 22,4 3 2 6 4 S 1033,3 60 0,0
26.09.2018 09:00:00 16,4 6,2 9,6 22,6 3 1 11 6 N 1033,0 60 0,0
26.09.2018 08:00:00 11,9 5,3 8,8 22,7 0 0 12 6 N 1032,7 5 0,0
26.09.2018 07:00:00 14,2 4,7 9,5 22,9 8 4 15 8 N 1031,7 0 0,0
26.09.2018 06:00:00 13,2 4,3 9,7 23,0 4 2 13 7 NNE 1031,5 0 0,0
26.09.2018 05:00:00 14,2 4,2 11,1 23,1 4 2 27 15 E 1031,3 0 0,0
26.09.2018 04:00:00 16,5 3,9 15,2 23,3 13 7 26 14 N 1031,1 0 0,0
26.09.2018 03:00:00 17,0 4,0 14,7 23,4 16 9 29 15 N 1031,3 0 0,0
26.09.2018 02:00:00 16,3 4,0 11,3 23,6 10 5 17 9 N 1030,9 0 0,0
26.09.2018 01:00:00 14,9 4,3 11,1 23,8 7 4 14 8 N 1030,8 0 0,0
26.09.2018 00:00:00 14,5 4,8 12,1 23,9 6 3 10 6 NNW 1030,3 0 0,0
25.09.2018 23:00:00 15,9 5,5 13,6 24,0 8 4 12 6 NNW 1029,9 0 0,0
25.09.2018 22:00:00 17,0 5,9 12,9 24,0 8 4 11 6 N 1029,6 0 0,0
25.09.2018 21:00:00 18,6 5,8 14,2 24,0 6 4 9 5 N 1028,7 0 0,0
25.09.2018 20:00:00 20,4 6,0 17,6 24,0 5 3 16 9 SSE 1027,8 13 0,0
25.09.2018 19:00:00 24,0 8,4 22,4 23,8 6 3 14 8 NE 1026,8 57 0,0
25.09.2018 18:00:00 26,4 8,8 28,5 23,6 3 2 15 8 NNW 1026,3 60 0,0
25.09.2018 17:00:00 25,8 9,2 32,0 23,4 7 4 22 12 NNE 1026,5 60 0,0
25.09.2018 16:00:00 25,8 9,2 33,5 23,1 6 3 24 13 N 1026,7 60 0,0
25.09.2018 15:00:00 25,3 9,2 32,9 22,9 6 4 21 12 NNE 1027,2 60 0,0
25.09.2018 14:00:00 24,5 7,6 30,5 22,8 10 5 24 13 NNE 1027,9 60 0,0
25.09.2018 13:00:00 22,2 6,8 24,7 22,7 11 6 31 17 N 1028,2 41 0,0
25.09.2018 12:00:00 20,9 6,0 24,4 22,7 14 8 32 17 NNE 1028,4 58 0,0
25.09.2018 11:00:00 18,4 4,9 17,8 22,8 17 9 32 17 NNE 1028,3 42 0,0
25.09.2018 10:00:00 15,7 3,8 16,5 22,9 10 5 29 15 NE 1027,8 4 0,0
25.09.2018 09:00:00 15,3 3,4 14,3 23,0 14 8 39 21 NNE 1027,0 52 0,0
25.09.2018 08:00:00 14,4 2,6 14,0 23,2 17 9 40 22 N 1026,3 0 0,0
25.09.2018 07:00:00 14,6 2,8 13,8 23,3 18 10 40 21 NNE 1026,1 0 0,0
25.09.2018 06:00:00 14,9 2,7 13,6 23,4 18 10 40 22 N 1025,9 0 0,0
25.09.2018 05:00:00 14,8 2,7 14,0 23,6 12 6 44 24 NNE 1026,1 0 0,0
25.09.2018 04:00:00 15,2 2,7 14,6 23,7 19 10 53 29 NNE 1025,2 0 0,0
25.09.2018 03:00:00 15,4 2,5 14,7 23,9 22 12 53 29 N 1025,1 0 0,0
25.09.2018 02:00:00 15,7 2,5 15,1 24,0 27 14 61 33 N 1024,6 0 0,0
25.09.2018 01:00:00 16,1 2,1 15,3 24,2 25 13 66 36 N 1024,4 0 0,0
25.09.2018 00:00:00 16,5 2,5 15,9 24,3 28 15 63 34 N 1024,2 0 0,0
24.09.2018 23:00:00 17,1 3,0 16,5 24,5 32 17 75 40 N 1023,8 0 0,0
24.09.2018 22:00:00 17,6 3,5 16,8 24,6 36 19 67 36 N 1023,6 0 0,0
24.09.2018 21:00:00 18,0 4,2 17,1 24,7 26 14 68 37 N 1023,4 0 0,0
24.09.2018 20:00:00 18,4 4,9 17,3 24,7 18 10 64 35 N 1022,9 15 0,0
24.09.2018 19:00:00 19,4 4,7 19,0 24,7 33 18 72 39 N 1021,9 38 0,0
24.09.2018 18:00:00 20,8 4,8 22,3 24,6 27 15 61 33 N 1021,9 60 0,0
24.09.2018 17:00:00 21,9 4,4 25,1 24,4 28 15 68 37 NNE 1021,5 60 0,0
24.09.2018 16:00:00 22,5 4,0 26,1 24,3 24 13 62 34 N 1021,6 60 0,0
24.09.2018 15:00:00 21,8 3,4 25,5 24,2 29 15 63 34 N 1022,0 60 0,0
24.09.2018 14:00:00 21,4 3,6 24,9 24,1 24 13 66 35 N 1022,4 60 0,0
24.09.2018 13:00:00 20,6 3,8 23,8 24,1 32 17 66 35 N 1023,3 60 0,0
24.09.2018 12:00:00 20,3 4,3 22,7 24,1 25 14 61 33 N 1023,6 58 0,0
24.09.2018 11:00:00 19,3 3,8 21,8 24,3 32 17 64 35 N 1023,7 60 0,0
24.09.2018 10:00:00 19,0 5,8 19,6 24,4 22 12 52 28 N 1023,2 60 0,0
24.09.2018 09:00:00 18,1 7,5 16,8 24,6 24 13 48 26 N 1022,3 60 0,0
24.09.2018 08:00:00 17,5 7,0 16,5 24,7 27 15 54 29 N 1022,0 8 0,0
24.09.2018 07:00:00 17,5 7,5 15,9 24,8 20 11 43 23 N 1021,8 0 0,0
24.09.2018 06:00:00 17,1 9,0 15,8 25,0 15 8 32 17 NNE 1021,5 0 0,0
24.09.2018 05:00:00 17,3 9,7 16,5 25,1 18 10 55 30 NNE 1021,4 0 0,0
24.09.2018 04:00:00 18,2 11,3 17,8 25,2 30 16 58 31 N 1020,4 0 0,0
24.09.2018 03:00:00 22,5 12,7 21,8 25,3 21 11 46 25 N 1019,7 0 0,0
24.09.2018 02:00:00 24,8 14,9 20,5 25,3 10 5 25 14 WNW 1018,3 0 0,0
24.09.2018 01:00:00 25,1 14,5 23,6 25,4 10 6 23 13 WNW 1018,3 0 0,0
24.09.2018 00:00:00 25,3 13,5 23,1 25,5 9 5 18 10 WNW 1018,6 0 0,0
23.09.2018 23:00:00 26,9 13,6 25,5 25,5 15 8 36 19 NW 1018,3 0 0,0
23.09.2018 22:00:00 27,3 13,6 25,8 25,5 9 5 35 19 WNW 1018,1 0 0,0
23.09.2018 21:00:00 28,7 13,8 27,6 25,5 17 9 37 20 WNW 1017,4 0 0,0
23.09.2018 20:00:00 29,8 13,5 28,7 25,4 16 9 42 23 WNW 1016,7 17 0,0
23.09.2018 19:00:00 32,0 13,2 30,9 25,2 17 9 30 16 NW 1016,1 60 0,0
23.09.2018 18:00:00 32,8 15,3 35,0 25,0 15 8 23 12 S 1015,9 60 0,0
23.09.2018 17:00:00 33,5 14,5 39,0 24,6 14 7 27 14 SSW 1016,1 60 0,0
23.09.2018 16:00:00 34,0 14,5 41,1 24,3 13 7 23 12 S 1016,4 60 0,0
23.09.2018 15:00:00 33,5 14,1 40,5 24,0 13 7 26 14 N 1017,0 60 0,0
23.09.2018 14:00:00 32,9 14,5 37,4 23,8 9 5 23 13 NW 1018,3 60 0,0
23.09.2018 13:00:00 31,0 14,2 36,8 23,6 8 4 25 13 WNW 1019,0 60 0,0
23.09.2018 12:00:00 29,8 14,0 34,1 23,6 9 5 24 13 NNW 1019,7 60 0,0
23.09.2018 11:00:00 28,1 14,0 29,8 23,6 7 4 24 13 NW 1020,3 60 0,0
23.09.2018 10:00:00 25,8 13,0 25,0 23,7 12 6 28 15 NNW 1020,3 60 0,0
23.09.2018 09:00:00 23,2 11,9 20,3 23,8 11 6 24 13 NNW 1020,0 60 0,0
23.09.2018 08:00:00 21,0 11,1 18,9 23,9 12 6 26 14 NW 1020,0 9 0,0
23.09.2018 07:00:00 20,2 9,1 19,0 24,0 13 7 24 13 NNW 1020,0 0 0,0
23.09.2018 06:00:00 20,2 8,2 15,2 24,2 13 7 24 13 NW 1020,2 0 0,0
23.09.2018 05:00:00 18,9 7,0 16,0 24,3 4 2 12 6 SSW 1020,4 0 0,0
23.09.2018 04:00:00 20,4 6,3 16,9 24,4 9 5 22 12 N 1020,4 0 0,0
23.09.2018 03:00:00 20,0 6,0 16,8 24,5 7 4 22 12 S 1021,1 0 0,0
23.09.2018 02:00:00 18,8 5,6 15,4 24,7 4 2 12 6 NNW 1021,4 0 0,0
23.09.2018 01:00:00 19,2 6,0 16,0 24,8 2 1 16 9 NE 1021,5 0 0,0
23.09.2018 00:00:00 20,6 5,0 16,8 24,9 3 2 20 11 NNW 1021,1 0 0,0
22.09.2018 23:00:00 21,9 3,5 19,5 25,0 8 4 20 11 NNW 1021,0 0 0,0
22.09.2018 22:00:00 22,6 2,1 20,9 25,0 10 5 21 11 N 1020,8 0 0,0
22.09.2018 21:00:00 23,2 1,5 21,2 25,1 12 7 22 12 N 1020,2 0 0,0
22.09.2018 20:00:00 24,0 3,3 21,8 25,0 11 6 20 11 N 1019,6 8 0,0
22.09.2018 19:00:00 27,6 5,2 24,9 24,9 6 4 17 9 NNE 1019,0 52 0,0
22.09.2018 18:00:00 29,2 5,3 31,5 24,7 10 6 18 10 NE 1018,8 60 0,0
22.09.2018 17:00:00 29,8 5,1 35,3 24,5 10 5 22 12 NE 1018,9 60 0,0
22.09.2018 16:00:00 29,2 3,2 34,9 24,3 13 7 27 15 N 1019,4 60 0,0
22.09.2018 15:00:00 28,1 3,0 33,1 24,1 14 8 31 17 N 1019,7 60 0,0
22.09.2018 14:00:00 26,2 2,8 30,9 24,0 17 9 40 21 NNW 1020,8 60 0,0
22.09.2018 13:00:00 24,7 4,4 27,3 23,9 19 11 37 20 N 1021,1 52 0,0
22.09.2018 12:00:00 23,7 6,0 26,6 24,0 14 8 35 19 N 1021,5 60 0,0
22.09.2018 11:00:00 21,0 6,1 22,6 24,1 18 10 43 23 N 1022,1 60 0,0
22.09.2018 10:00:00 19,1 6,6 19,2 24,2 21 12 36 20 N 1021,9 60 0,0
22.09.2018 09:00:00 17,3 6,8 14,6 24,4 19 10 35 19 N 1021,8 60 0,0
22.09.2018 08:00:00 15,4 7,2 14,4 24,6 13 7 41 22 N 1021,7 5 0,0
22.09.2018 07:00:00 16,0 7,2 15,2 24,7 19 10 51 27 N 1020,9 0 0,0
22.09.2018 06:00:00 16,7 7,3 15,5 24,9 27 15 55 30 N 1020,4 0 0,0
22.09.2018 05:00:00 16,7 8,1 15,6 25,0 13 7 38 20 N 1020,6 0 0,0
22.09.2018 04:00:00 17,1 9,0 16,3 25,1 16 9 29 16 N 1020,6 0 0,0
22.09.2018 03:00:00 17,9 9,5 17,3 25,3 18 10 37 20 N 1020,6 0 0,0
22.09.2018 02:00:00 19,3 11,8 18,6 25,4 13 7 30 16 N 1020,2 0 0,0
22.09.2018 01:00:00 20,6 12,6 19,0 25,4 9 5 26 14 NE 1020,0 0 0,0
22.09.2018 00:00:00 23,6 13,5 22,2 25,5 7 4 23 12 NW 1019,6 0 0,0
21.09.2018 23:00:00 24,6 13,5 22,9 25,6 6 3 19 11 NW 1019,3 0 0,0
21.09.2018 22:00:00 25,0 12,9 24,3 25,6 11 6 49 26 NNW 1018,2 0 0,0
21.09.2018 21:00:00 25,9 12,0 25,5 25,6 21 11 45 24 WNW 1017,2 0 0,0
21.09.2018 20:00:00 27,1 11,2 26,1 25,5 21 12 42 23 NNW 1016,2 0 0,0
21.09.2018 19:00:00 29,2 10,3 28,7 25,4 17 9 36 19 NNW 1015,8 41 0,0
21.09.2018 18:00:00 29,5 17,0 31,2 25,2 8 4 19 11 SW 1015,1 36 0,0
21.09.2018 17:00:00 31,1 18,5 32,6 25,0 11 6 24 13 SSW 1014,9 33 0,0
21.09.2018 16:00:00 31,4 16,9 38,5 24,7 11 6 21 11 S 1015,0 60 0,0
21.09.2018 15:00:00 30,8 17,1 36,2 24,4 10 6 18 10 S 1015,6 52 0,0
21.09.2018 14:00:00 29,4 17,6 36,2 24,2 10 6 24 13 S 1016,2 54 0,0
21.09.2018 13:00:00 28,9 17,4 35,8 24,1 8 5 17 9 SSW 1016,7 60 0,0
21.09.2018 12:00:00 27,1 16,7 33,0 24,1 7 4 14 7 SSW 1017,3 60 0,0
21.09.2018 11:00:00 25,8 17,7 28,3 24,1 2 1 8 5 WNW 1017,4 46 0,0
21.09.2018 10:00:00 24,5 18,7 21,7 24,2 4 2 13 7 ESE 1016,9 60 0,0
21.09.2018 09:00:00 20,4 18,5 18,3 24,3 6 3 14 8 N 1017,0 60 0,0
21.09.2018 08:00:00 19,0 18,3 17,7 24,4 6 3 12 6 NNW 1016,6 11 0,2
21.09.2018 07:00:00 19,1 18,3 16,1 24,5 8 4 12 7 NNW 1016,1 0 0,0
21.09.2018 06:00:00 19,2 18,4 17,4 24,7 5 3 10 6 N 1016,0 0 0,0
21.09.2018 05:00:00 19,5 18,7 18,0 24,8 6 4 10 6 NNW 1016,4 0 0,0
21.09.2018 04:00:00 19,4 18,4 15,9 24,9 5 3 8 4 N 1016,6 0 0,0
21.09.2018 03:00:00 19,1 17,9 15,7 25,0 3 1 6 3 NE 1016,7 0 0,0
21.09.2018 02:00:00 19,2 17,3 16,0 25,2 4 2 7 4 NNW 1017,1 0 0,0
21.09.2018 01:00:00 19,3 17,1 16,1 25,3 0 0 4 2 N 1017,3 0 0,0
21.09.2018 00:00:00 19,7 16,7 16,5 25,4 0 0 4 2 N 1017,4 0 0,0
20.09.2018 23:00:00 20,5 16,9 17,2 25,5 2 1 9 5 SE 1017,3 0 0,0
20.09.2018 22:00:00 22,1 16,8 18,3 25,5 6 3 9 5 S 1016,9 0 0,0
20.09.2018 21:00:00 23,9 17,2 20,8 25,5 6 3 13 7 S 1016,6 0 0,0
20.09.2018 20:00:00 25,7 16,8 23,6 25,5 8 5 23 12 S 1016,1 22 0,0
20.09.2018 19:00:00 28,0 16,3 27,4 25,3 16 9 28 15 S 1015,9 60 0,0
20.09.2018 18:00:00 31,2 16,8 33,5 25,1 18 10 28 15 S 1015,4 60 0,0
20.09.2018 17:00:00 34,0 14,5 39,2 24,8 10 5 17 9 SE 1015,4 60 0,0

tt = temperature
td = dewpoint
tt 5cm = temperature 5cm
tt -20cm = temperature -20cm
ff = wind speed
fx = gusts
dd = wind direction
ppp = reduced air pressure
sd = sunshine duration
rr = precipitation

Next stations